sensor_id;sensor_type;location;lat;lon;timestamp;P1;durP1;ratioP1;P2;durP2;ratioP2
48522;SDS011;34315;50.150;11.070;2023-03-02T00:02:09;23.20;;;11.50;;
48522;SDS011;34315;50.150;11.070;2023-03-02T00:07:17;27.55;;;11.82;;
48522;SDS011;34315;50.150;11.070;2023-03-02T00:12:19;21.20;;;11.65;;
48522;SDS011;34315;50.150;11.070;2023-03-02T00:17:20;23.50;;;11.43;;
48522;SDS011;34315;50.150;11.070;2023-03-02T00:22:27;26.05;;;11.82;;
48522;SDS011;34315;50.150;11.070;2023-03-02T00:27:29;22.63;;;10.85;;
48522;SDS011;34315;50.150;11.070;2023-03-02T00:32:30;24.10;;;11.50;;
48522;SDS011;34315;50.150;11.070;2023-03-02T00:37:31;23.55;;;11.85;;
48522;SDS011;34315;50.150;11.070;2023-03-02T00:42:32;25.35;;;12.23;;
48522;SDS011;34315;50.150;11.070;2023-03-02T00:47:34;27.13;;;12.27;;
48522;SDS011;34315;50.150;11.070;2023-03-02T00:52:35;22.17;;;11.27;;
48522;SDS011;34315;50.150;11.070;2023-03-02T00:57:36;23.23;;;11.88;;
48522;SDS011;34315;50.150;11.070;2023-03-02T01:02:39;25.20;;;11.85;;
48522;SDS011;34315;50.150;11.070;2023-03-02T01:07:45;22.85;;;10.85;;
48522;SDS011;34315;50.150;11.070;2023-03-02T01:12:46;25.30;;;12.55;;
48522;SDS011;34315;50.150;11.070;2023-03-02T01:17:47;24.45;;;11.43;;
48522;SDS011;34315;50.150;11.070;2023-03-02T01:22:48;24.30;;;11.15;;
48522;SDS011;34315;50.150;11.070;2023-03-02T01:27:50;19.30;;;10.57;;
48522;SDS011;34315;50.150;11.070;2023-03-02T01:32:51;23.88;;;11.10;;
48522;SDS011;34315;50.150;11.070;2023-03-02T01:37:52;24.58;;;11.38;;
48522;SDS011;34315;50.150;11.070;2023-03-02T01:42:56;23.50;;;11.13;;
48522;SDS011;34315;50.150;11.070;2023-03-02T01:47:58;23.60;;;11.45;;
48522;SDS011;34315;50.150;11.070;2023-03-02T01:52:59;23.85;;;11.95;;
48522;SDS011;34315;50.150;11.070;2023-03-02T01:58:00;24.50;;;11.75;;
48522;SDS011;34315;50.150;11.070;2023-03-02T02:03:04;24.48;;;10.98;;
48522;SDS011;34315;50.150;11.070;2023-03-02T02:08:09;21.02;;;11.45;;
48522;SDS011;34315;50.150;11.070;2023-03-02T02:13:10;21.90;;;10.68;;
48522;SDS011;34315;50.150;11.070;2023-03-02T02:18:11;20.65;;;10.52;;
48522;SDS011;34315;50.150;11.070;2023-03-02T02:28:59;23.45;;;11.65;;
48522;SDS011;34315;50.150;11.070;2023-03-02T02:34:49;23.00;;;10.95;;
48522;SDS011;34315;50.150;11.070;2023-03-02T02:44:31;23.20;;;10.70;;
48522;SDS011;34315;50.150;11.070;2023-03-02T02:49:34;27.60;;;11.85;;
48522;SDS011;34315;50.150;11.070;2023-03-02T02:54:38;25.23;;;11.60;;
48522;SDS011;34315;50.150;11.070;2023-03-02T02:59:46;21.83;;;10.55;;
48522;SDS011;34315;50.150;11.070;2023-03-02T03:04:49;25.23;;;11.07;;
48522;SDS011;34315;50.150;11.070;2023-03-02T03:09:52;26.10;;;12.15;;
48522;SDS011;34315;50.150;11.070;2023-03-02T03:14:57;25.65;;;12.23;;
48522;SDS011;34315;50.150;11.070;2023-03-02T03:19:59;24.17;;;12.25;;
48522;SDS011;34315;50.150;11.070;2023-03-02T03:25:07;26.80;;;11.52;;
48522;SDS011;34315;50.150;11.070;2023-03-02T03:30:09;23.02;;;11.35;;
48522;SDS011;34315;50.150;11.070;2023-03-02T03:40:14;21.55;;;10.38;;
48522;SDS011;34315;50.150;11.070;2023-03-02T03:45:17;22.88;;;10.90;;
48522;SDS011;34315;50.150;11.070;2023-03-02T03:50:19;26.25;;;12.45;;
48522;SDS011;34315;50.150;11.070;2023-03-02T03:55:20;25.73;;;11.93;;
48522;SDS011;34315;50.150;11.070;2023-03-02T04:00:23;23.17;;;10.98;;
48522;SDS011;34315;50.150;11.070;2023-03-02T04:05:31;22.92;;;11.15;;
48522;SDS011;34315;50.150;11.070;2023-03-02T04:10:35;24.20;;;11.68;;
48522;SDS011;34315;50.150;11.070;2023-03-02T04:15:37;23.23;;;12.13;;
48522;SDS011;34315;50.150;11.070;2023-03-02T04:20:38;24.95;;;12.63;;
48522;SDS011;34315;50.150;11.070;2023-03-02T04:25:40;23.58;;;11.15;;
48522;SDS011;34315;50.150;11.070;2023-03-02T04:30:47;23.58;;;11.70;;
48522;SDS011;34315;50.150;11.070;2023-03-02T04:35:48;23.20;;;11.07;;
48522;SDS011;34315;50.150;11.070;2023-03-02T04:40:49;25.23;;;13.80;;
48522;SDS011;34315;50.150;11.070;2023-03-02T04:45:51;23.73;;;12.73;;
48522;SDS011;34315;50.150;11.070;2023-03-02T04:50:52;23.83;;;12.10;;
48522;SDS011;34315;50.150;11.070;2023-03-02T04:55:54;22.80;;;12.48;;
48522;SDS011;34315;50.150;11.070;2023-03-02T05:00:55;23.80;;;11.07;;
48522;SDS011;34315;50.150;11.070;2023-03-02T05:06:01;23.42;;;12.30;;
48522;SDS011;34315;50.150;11.070;2023-03-02T05:11:06;24.53;;;12.17;;
48522;SDS011;34315;50.150;11.070;2023-03-02T05:16:07;24.55;;;11.85;;
48522;SDS011;34315;50.150;11.070;2023-03-02T05:21:08;24.80;;;11.63;;
48522;SDS011;34315;50.150;11.070;2023-03-02T05:26:10;26.10;;;12.02;;
48522;SDS011;34315;50.150;11.070;2023-03-02T05:31:18;23.40;;;11.23;;
48522;SDS011;34315;50.150;11.070;2023-03-02T05:36:22;25.15;;;11.85;;
48522;SDS011;34315;50.150;11.070;2023-03-02T05:41:23;26.02;;;13.48;;
48522;SDS011;34315;50.150;11.070;2023-03-02T05:46:25;28.33;;;13.48;;
48522;SDS011;34315;50.150;11.070;2023-03-02T05:51:26;29.33;;;13.98;;
48522;SDS011;34315;50.150;11.070;2023-03-02T05:56:27;24.15;;;11.65;;
48522;SDS011;34315;50.150;11.070;2023-03-02T06:01:28;32.92;;;15.40;;
48522;SDS011;34315;50.150;11.070;2023-03-02T06:06:29;31.63;;;14.55;;
48522;SDS011;34315;50.150;11.070;2023-03-02T06:11:30;29.77;;;15.23;;
48522;SDS011;34315;50.150;11.070;2023-03-02T06:16:31;38.25;;;18.92;;
48522;SDS011;34315;50.150;11.070;2023-03-02T06:21:33;26.33;;;13.50;;
48522;SDS011;34315;50.150;11.070;2023-03-02T06:26:34;30.23;;;13.82;;
48522;SDS011;34315;50.150;11.070;2023-03-02T06:31:35;24.20;;;12.40;;
48522;SDS011;34315;50.150;11.070;2023-03-02T06:36:36;21.40;;;11.43;;
48522;SDS011;34315;50.150;11.070;2023-03-02T06:41:41;24.33;;;12.20;;
48522;SDS011;34315;50.150;11.070;2023-03-02T06:46:43;25.40;;;11.32;;
48522;SDS011;34315;50.150;11.070;2023-03-02T06:51:44;28.38;;;12.70;;
48522;SDS011;34315;50.150;11.070;2023-03-02T06:56:45;26.80;;;13.00;;
48522;SDS011;34315;50.150;11.070;2023-03-02T07:01:46;27.45;;;13.50;;
48522;SDS011;34315;50.150;11.070;2023-03-02T07:06:50;29.92;;;14.98;;
48522;SDS011;34315;50.150;11.070;2023-03-02T07:11:51;29.75;;;15.23;;
48522;SDS011;34315;50.150;11.070;2023-03-02T07:16:52;26.65;;;12.45;;
48522;SDS011;34315;50.150;11.070;2023-03-02T07:21:53;26.90;;;13.40;;
48522;SDS011;34315;50.150;11.070;2023-03-02T07:26:54;24.38;;;11.68;;
48522;SDS011;34315;50.150;11.070;2023-03-02T07:31:55;27.45;;;12.45;;
48522;SDS011;34315;50.150;11.070;2023-03-02T07:36:58;24.17;;;11.60;;
48522;SDS011;34315;50.150;11.070;2023-03-02T07:42:00;27.42;;;12.95;;
48522;SDS011;34315;50.150;11.070;2023-03-02T07:47:03;27.38;;;12.52;;
48522;SDS011;34315;50.150;11.070;2023-03-02T07:52:04;22.42;;;11.32;;
48522;SDS011;34315;50.150;11.070;2023-03-02T07:57:05;22.35;;;11.65;;
48522;SDS011;34315;50.150;11.070;2023-03-02T08:02:08;20.95;;;10.60;;
48522;SDS011;34315;50.150;11.070;2023-03-02T08:07:12;23.20;;;12.50;;
48522;SDS011;34315;50.150;11.070;2023-03-02T08:12:13;23.20;;;12.15;;
48522;SDS011;34315;50.150;11.070;2023-03-02T08:17:14;21.73;;;10.52;;
48522;SDS011;34315;50.150;11.070;2023-03-02T08:22:15;24.55;;;12.02;;
48522;SDS011;34315;50.150;11.070;2023-03-02T08:27:16;22.80;;;11.02;;
48522;SDS011;34315;50.150;11.070;2023-03-02T08:32:18;20.50;;;11.18;;
48522;SDS011;34315;50.150;11.070;2023-03-02T08:37:19;22.42;;;11.73;;
48522;SDS011;34315;50.150;11.070;2023-03-02T08:42:20;19.55;;;11.10;;
48522;SDS011;34315;50.150;11.070;2023-03-02T08:47:21;18.63;;;10.82;;
48522;SDS011;34315;50.150;11.070;2023-03-02T08:52:22;17.85;;;10.45;;
48522;SDS011;34315;50.150;11.070;2023-03-02T08:57:23;21.23;;;10.55;;
48522;SDS011;34315;50.150;11.070;2023-03-02T09:02:24;18.55;;;9.63;;
48522;SDS011;34315;50.150;11.070;2023-03-02T09:07:25;17.38;;;9.90;;
48522;SDS011;34315;50.150;11.070;2023-03-02T09:12:26;18.50;;;9.70;;
48522;SDS011;34315;50.150;11.070;2023-03-02T09:17:27;19.63;;;9.52;;
48522;SDS011;34315;50.150;11.070;2023-03-02T09:22:28;17.33;;;9.60;;
48522;SDS011;34315;50.150;11.070;2023-03-02T09:27:31;17.08;;;8.85;;
48522;SDS011;34315;50.150;11.070;2023-03-02T09:32:32;16.17;;;8.35;;
48522;SDS011;34315;50.150;11.070;2023-03-02T09:37:33;17.98;;;8.73;;
48522;SDS011;34315;50.150;11.070;2023-03-02T09:42:41;14.73;;;8.85;;
48522;SDS011;34315;50.150;11.070;2023-03-02T09:47:54;16.35;;;8.27;;
48522;SDS011;34315;50.150;11.070;2023-03-02T09:53:23;18.45;;;7.55;;
48522;SDS011;34315;50.150;11.070;2023-03-02T09:58:35;16.42;;;8.05;;
48522;SDS011;34315;50.150;11.070;2023-03-02T10:03:47;14.70;;;7.97;;
48522;SDS011;34315;50.150;11.070;2023-03-02T10:08:50;17.27;;;7.55;;
48522;SDS011;34315;50.150;11.070;2023-03-02T10:24:38;14.68;;;7.32;;
48522;SDS011;34315;50.150;11.070;2023-03-02T10:35:30;15.40;;;6.35;;
48522;SDS011;34315;50.150;11.070;2023-03-02T10:40:42;16.13;;;7.00;;
48522;SDS011;34315;50.150;11.070;2023-03-02T10:45:56;15.15;;;5.45;;
48522;SDS011;34315;50.150;11.070;2023-03-02T10:50:58;9.20;;;4.63;;
48522;SDS011;34315;50.150;11.070;2023-03-02T10:56:00;12.70;;;5.05;;
48522;SDS011;34315;50.150;11.070;2023-03-02T11:01:02;12.40;;;5.15;;
48522;SDS011;34315;50.150;11.070;2023-03-02T11:06:18;15.23;;;5.30;;
48522;SDS011;34315;50.150;11.070;2023-03-02T11:11:22;12.38;;;5.38;;
48522;SDS011;34315;50.150;11.070;2023-03-02T11:16:25;10.27;;;5.15;;
48522;SDS011;34315;50.150;11.070;2023-03-02T11:21:42;9.45;;;5.03;;
48522;SDS011;34315;50.150;11.070;2023-03-02T11:32:03;14.75;;;6.50;;
48522;SDS011;34315;50.150;11.070;2023-03-02T11:37:22;14.43;;;5.03;;
48522;SDS011;34315;50.150;11.070;2023-03-02T11:42:30;14.65;;;5.18;;
48522;SDS011;34315;50.150;11.070;2023-03-02T11:47:33;15.32;;;5.50;;
48522;SDS011;34315;50.150;11.070;2023-03-02T11:52:36;15.95;;;6.43;;
48522;SDS011;34315;50.150;11.070;2023-03-02T11:57:39;15.10;;;6.85;;
48522;SDS011;34315;50.150;11.070;2023-03-02T12:02:56;13.40;;;6.72;;
48522;SDS011;34315;50.150;11.070;2023-03-02T12:07:59;14.10;;;7.15;;
48522;SDS011;34315;50.150;11.070;2023-03-02T12:13:28;13.90;;;6.05;;
48522;SDS011;34315;50.150;11.070;2023-03-02T12:18:48;15.15;;;6.10;;
48522;SDS011;34315;50.150;11.070;2023-03-02T12:23:53;14.73;;;6.30;;
48522;SDS011;34315;50.150;11.070;2023-03-02T12:34:26;15.45;;;6.22;;
48522;SDS011;34315;50.150;11.070;2023-03-02T12:45:03;14.25;;;6.40;;
48522;SDS011;34315;50.150;11.070;2023-03-02T12:50:16;11.35;;;6.03;;
48522;SDS011;34315;50.150;11.070;2023-03-02T12:55:19;16.88;;;6.55;;
48522;SDS011;34315;50.150;11.070;2023-03-02T13:00:30;12.10;;;6.53;;
48522;SDS011;34315;50.150;11.070;2023-03-02T13:05:35;16.30;;;8.40;;
48522;SDS011;34315;50.150;11.070;2023-03-02T13:10:40;16.00;;;8.70;;
48522;SDS011;34315;50.150;11.070;2023-03-02T13:21:00;16.33;;;8.50;;
48522;SDS011;34315;50.150;11.070;2023-03-02T13:26:03;18.67;;;8.70;;
48522;SDS011;34315;50.150;11.070;2023-03-02T13:31:27;17.92;;;9.48;;
48522;SDS011;34315;50.150;11.070;2023-03-02T13:36:27;17.35;;;9.40;;
48522;SDS011;34315;50.150;11.070;2023-03-02T13:41:31;18.33;;;10.52;;
48522;SDS011;34315;50.150;11.070;2023-03-02T13:46:34;15.85;;;9.93;;
48522;SDS011;34315;50.150;11.070;2023-03-02T13:51:36;16.02;;;10.40;;
48522;SDS011;34315;50.150;11.070;2023-03-02T13:56:39;16.23;;;9.95;;
48522;SDS011;34315;50.150;11.070;2023-03-02T14:01:40;18.70;;;10.25;;
48522;SDS011;34315;50.150;11.070;2023-03-02T14:06:41;15.60;;;10.13;;
48522;SDS011;34315;50.150;11.070;2023-03-02T14:11:44;17.70;;;10.40;;
48522;SDS011;34315;50.150;11.070;2023-03-02T14:16:47;17.02;;;7.85;;
48522;SDS011;34315;50.150;11.070;2023-03-02T14:21:48;15.00;;;7.15;;
48522;SDS011;34315;50.150;11.070;2023-03-02T14:26:49;15.20;;;7.40;;
48522;SDS011;34315;50.150;11.070;2023-03-02T14:31:51;13.60;;;7.07;;
48522;SDS011;34315;50.150;11.070;2023-03-02T14:36:57;17.85;;;8.50;;
48522;SDS011;34315;50.150;11.070;2023-03-02T14:41:59;15.60;;;8.13;;
48522;SDS011;34315;50.150;11.070;2023-03-02T14:47:01;20.17;;;6.90;;
48522;SDS011;34315;50.150;11.070;2023-03-02T14:52:06;15.80;;;8.48;;
48522;SDS011;34315;50.150;11.070;2023-03-02T14:57:19;20.08;;;9.32;;
48522;SDS011;34315;50.150;11.070;2023-03-02T15:02:22;15.25;;;10.40;;
48522;SDS011;34315;50.150;11.070;2023-03-02T15:07:26;14.82;;;9.32;;
48522;SDS011;34315;50.150;11.070;2023-03-02T15:12:28;17.33;;;11.15;;
48522;SDS011;34315;50.150;11.070;2023-03-02T15:17:29;18.02;;;10.20;;
48522;SDS011;34315;50.150;11.070;2023-03-02T15:22:30;14.40;;;9.35;;
48522;SDS011;34315;50.150;11.070;2023-03-02T15:27:32;16.98;;;10.13;;
48522;SDS011;34315;50.150;11.070;2023-03-02T15:32:34;16.65;;;9.52;;
48522;SDS011;34315;50.150;11.070;2023-03-02T15:37:36;14.98;;;8.40;;
48522;SDS011;34315;50.150;11.070;2023-03-02T15:42:37;16.50;;;8.90;;
48522;SDS011;34315;50.150;11.070;2023-03-02T15:47:38;15.80;;;8.70;;
48522;SDS011;34315;50.150;11.070;2023-03-02T15:52:39;14.73;;;8.52;;
48522;SDS011;34315;50.150;11.070;2023-03-02T15:57:41;15.18;;;8.85;;
48522;SDS011;34315;50.150;11.070;2023-03-02T16:02:42;15.95;;;9.35;;
48522;SDS011;34315;50.150;11.070;2023-03-02T16:07:43;14.73;;;8.45;;
48522;SDS011;34315;50.150;11.070;2023-03-02T16:12:44;16.20;;;8.80;;
48522;SDS011;34315;50.150;11.070;2023-03-02T16:17:46;13.93;;;8.32;;
48522;SDS011;34315;50.150;11.070;2023-03-02T16:22:47;16.33;;;8.25;;
48522;SDS011;34315;50.150;11.070;2023-03-02T16:27:48;14.48;;;7.93;;
48522;SDS011;34315;50.150;11.070;2023-03-02T16:32:49;13.18;;;8.43;;
48522;SDS011;34315;50.150;11.070;2023-03-02T16:37:50;14.48;;;7.88;;
48522;SDS011;34315;50.150;11.070;2023-03-02T16:42:51;13.88;;;8.10;;
48522;SDS011;34315;50.150;11.070;2023-03-02T16:47:53;14.05;;;7.68;;
48522;SDS011;34315;50.150;11.070;2023-03-02T16:52:54;17.42;;;8.02;;
48522;SDS011;34315;50.150;11.070;2023-03-02T16:57:55;14.52;;;7.65;;
48522;SDS011;34315;50.150;11.070;2023-03-02T17:02:56;14.18;;;7.93;;
48522;SDS011;34315;50.150;11.070;2023-03-02T17:07:57;16.13;;;8.88;;
48522;SDS011;34315;50.150;11.070;2023-03-02T17:12:59;16.35;;;7.40;;
48522;SDS011;34315;50.150;11.070;2023-03-02T17:18:00;14.70;;;7.97;;
48522;SDS011;34315;50.150;11.070;2023-03-02T17:23:01;18.85;;;8.73;;
48522;SDS011;34315;50.150;11.070;2023-03-02T17:28:03;16.38;;;8.77;;
48522;SDS011;34315;50.150;11.070;2023-03-02T17:33:05;16.70;;;9.10;;
48522;SDS011;34315;50.150;11.070;2023-03-02T17:38:06;16.88;;;8.25;;
48522;SDS011;34315;50.150;11.070;2023-03-02T17:43:07;16.77;;;9.30;;
48522;SDS011;34315;50.150;11.070;2023-03-02T17:48:08;19.00;;;9.60;;
48522;SDS011;34315;50.150;11.070;2023-03-02T17:53:09;19.38;;;10.65;;
48522;SDS011;34315;50.150;11.070;2023-03-02T17:58:10;18.88;;;9.98;;
48522;SDS011;34315;50.150;11.070;2023-03-02T18:03:11;20.23;;;9.93;;
48522;SDS011;34315;50.150;11.070;2023-03-02T18:08:12;19.80;;;11.07;;
48522;SDS011;34315;50.150;11.070;2023-03-02T18:13:14;24.15;;;11.27;;
48522;SDS011;34315;50.150;11.070;2023-03-02T18:18:15;19.02;;;10.05;;
48522;SDS011;34315;50.150;11.070;2023-03-02T18:23:16;28.17;;;11.07;;
48522;SDS011;34315;50.150;11.070;2023-03-02T18:28:18;21.40;;;10.70;;
48522;SDS011;34315;50.150;11.070;2023-03-02T18:33:19;18.60;;;10.00;;
48522;SDS011;34315;50.150;11.070;2023-03-02T18:38:21;21.35;;;11.18;;
48522;SDS011;34315;50.150;11.070;2023-03-02T18:43:22;22.70;;;9.90;;
48522;SDS011;34315;50.150;11.070;2023-03-02T18:48:23;21.27;;;11.77;;
48522;SDS011;34315;50.150;11.070;2023-03-02T18:53:24;22.58;;;11.13;;
48522;SDS011;34315;50.150;11.070;2023-03-02T18:58:26;23.65;;;11.15;;
48522;SDS011;34315;50.150;11.070;2023-03-02T19:03:33;21.52;;;10.75;;
48522;SDS011;34315;50.150;11.070;2023-03-02T19:08:36;22.88;;;10.95;;
48522;SDS011;34315;50.150;11.070;2023-03-02T19:13:38;20.63;;;10.77;;
48522;SDS011;34315;50.150;11.070;2023-03-02T19:18:39;22.80;;;11.88;;
48522;SDS011;34315;50.150;11.070;2023-03-02T19:23:40;24.30;;;12.60;;
48522;SDS011;34315;50.150;11.070;2023-03-02T19:28:42;28.58;;;15.05;;
48522;SDS011;34315;50.150;11.070;2023-03-02T19:33:43;24.83;;;12.93;;
48522;SDS011;34315;50.150;11.070;2023-03-02T19:38:44;20.58;;;11.57;;
48522;SDS011;34315;50.150;11.070;2023-03-02T19:43:46;32.28;;;14.32;;
48522;SDS011;34315;50.150;11.070;2023-03-02T19:48:47;26.95;;;12.65;;
48522;SDS011;34315;50.150;11.070;2023-03-02T19:53:48;20.88;;;11.18;;
48522;SDS011;34315;50.150;11.070;2023-03-02T19:58:49;19.15;;;10.55;;
48522;SDS011;34315;50.150;11.070;2023-03-02T20:03:54;30.30;;;13.33;;
48522;SDS011;34315;50.150;11.070;2023-03-02T20:08:56;28.73;;;13.95;;
48522;SDS011;34315;50.150;11.070;2023-03-02T20:13:58;28.83;;;13.68;;
48522;SDS011;34315;50.150;11.070;2023-03-02T20:19:02;29.98;;;15.23;;
48522;SDS011;34315;50.150;11.070;2023-03-02T20:24:03;31.20;;;15.85;;
48522;SDS011;34315;50.150;11.070;2023-03-02T20:29:05;35.35;;;16.83;;
48522;SDS011;34315;50.150;11.070;2023-03-02T20:34:08;38.72;;;18.65;;
48522;SDS011;34315;50.150;11.070;2023-03-02T20:39:18;36.23;;;15.50;;
48522;SDS011;34315;50.150;11.070;2023-03-02T20:44:25;31.65;;;13.95;;
48522;SDS011;34315;50.150;11.070;2023-03-02T20:49:30;28.27;;;14.15;;
48522;SDS011;34315;50.150;11.070;2023-03-02T20:54:33;26.83;;;13.13;;
48522;SDS011;34315;50.150;11.070;2023-03-02T20:59:36;27.80;;;13.18;;
48522;SDS011;34315;50.150;11.070;2023-03-02T21:04:38;24.77;;;12.00;;
48522;SDS011;34315;50.150;11.070;2023-03-02T21:09:42;22.75;;;11.55;;
48522;SDS011;34315;50.150;11.070;2023-03-02T21:14:43;25.17;;;11.52;;
48522;SDS011;34315;50.150;11.070;2023-03-02T21:19:44;27.10;;;13.35;;
48522;SDS011;34315;50.150;11.070;2023-03-02T21:24:45;24.38;;;12.18;;
48522;SDS011;34315;50.150;11.070;2023-03-02T21:29:47;31.13;;;14.38;;
48522;SDS011;34315;50.150;11.070;2023-03-02T21:34:48;28.08;;;14.77;;
48522;SDS011;34315;50.150;11.070;2023-03-02T21:39:49;29.40;;;14.23;;
48522;SDS011;34315;50.150;11.070;2023-03-02T21:44:50;31.15;;;14.57;;
48522;SDS011;34315;50.150;11.070;2023-03-02T21:49:51;34.97;;;15.50;;
48522;SDS011;34315;50.150;11.070;2023-03-02T21:54:53;27.00;;;13.38;;
48522;SDS011;34315;50.150;11.070;2023-03-02T21:59:54;25.42;;;12.52;;
48522;SDS011;34315;50.150;11.070;2023-03-02T22:04:55;28.85;;;13.82;;
48522;SDS011;34315;50.150;11.070;2023-03-02T22:09:56;35.90;;;16.38;;
48522;SDS011;34315;50.150;11.070;2023-03-02T22:14:57;29.73;;;13.13;;
48522;SDS011;34315;50.150;11.070;2023-03-02T22:19:59;25.25;;;11.20;;
48522;SDS011;34315;50.150;11.070;2023-03-02T22:25:00;20.90;;;11.27;;
48522;SDS011;34315;50.150;11.070;2023-03-02T22:30:05;24.60;;;12.07;;
48522;SDS011;34315;50.150;11.070;2023-03-02T22:40:27;23.55;;;11.25;;
48522;SDS011;34315;50.150;11.070;2023-03-02T22:45:30;21.58;;;10.40;;
48522;SDS011;34315;50.150;11.070;2023-03-02T22:50:31;26.15;;;10.95;;
48522;SDS011;34315;50.150;11.070;2023-03-02T22:55:36;21.92;;;10.43;;
48522;SDS011;34315;50.150;11.070;2023-03-02T23:00:39;30.27;;;12.07;;
48522;SDS011;34315;50.150;11.070;2023-03-02T23:05:40;22.17;;;11.25;;
48522;SDS011;34315;50.150;11.070;2023-03-02T23:10:42;22.98;;;10.63;;
48522;SDS011;34315;50.150;11.070;2023-03-02T23:15:45;25.10;;;11.00;;
48522;SDS011;34315;50.150;11.070;2023-03-02T23:20:46;22.50;;;10.82;;
48522;SDS011;34315;50.150;11.070;2023-03-02T23:25:48;22.20;;;10.50;;
48522;SDS011;34315;50.150;11.070;2023-03-02T23:30:50;25.15;;;11.45;;
48522;SDS011;34315;50.150;11.070;2023-03-02T23:35:51;21.52;;;11.30;;
48522;SDS011;34315;50.150;11.070;2023-03-02T23:40:52;22.38;;;11.07;;
48522;SDS011;34315;50.150;11.070;2023-03-02T23:45:53;23.42;;;12.32;;
48522;SDS011;34315;50.150;11.070;2023-03-02T23:50:55;25.33;;;11.90;;
48522;SDS011;34315;50.150;11.070;2023-03-02T23:55:57;28.55;;;13.38;;
